KOUN/OUN METAR and TAF weather

Enter ICAO airport designator
Station Type Date Time Source
KOUN METAR 2020/09/19 17:45 UTC NOAA

KOUN 191745Z 18004KT 10SM CLR 23/14 A3021


Station Type Date Time Source
KOUN Decoded METAR 2020/09/19 17:45 UTC NOAA

Norman / Max Westheimer, OK, United States (KOUN) 35-13N 097-27W 357M
Sep 19, 2020 - 01:45 PM EDT / 2020.09.19 1745 UTC
Wind: from the S (180 degrees) at 5 MPH (4 KT):0
Visibility: 10 mile(s):0
Sky conditions: clear
Temperature: 73 F (23 C)
Dew Point: 57 F (14 C)
Relative Humidity: 56%
Pressure (altimeter): 30.21 in. Hg (1023 hPa)
ob: KOUN 191745Z 18004KT 10SM CLR 23/14 A3021
cycle: 18

Station Type Date Time Source
KOUN TAF 2020/09/19 18:24 UTC NOAA

TAF KOUN 191722Z 1918/2018 16007KT P6SM SCT250

Example: see airport list